Accueil
METAR-TAF:

METAR-TAF

Aéroports :

Waynesville Regional Airport at Forney Field

Fort Leonard Wood, Missouri, États-Unis

latitude: 37-44N, longitude: 092-08W, altitude: 353 m

Observation

Le bulletin a été fait il y a 28 minutes, à 02:07 UTC
Vent 12 kt de nord/nord-ouest avec des rafales jusqu'à 19 kt
Température 13°C
Humidité 94%
Pression 1013 hPa
Visibilité: 16.1 km
Nuages fragmentés à une hauteur de 1100 ft
pluie faible

METAR: KTBN 280207Z AUTO 34012G19KT 10SM -RA BKN011 13/12 A2990 RMK AO2 DZE0157RAB07 CIG 009 RWY33 PRESRR SLP123

Heure: 21:35 (02:35 UTC)


TAF: absent

Observations et prévisions météorologiques de plus de 4000 aéroports (messages METAR et TAF).

Les stations disponibles sont représentées par des disques jaunes et rouges sur la carte.

Passer la souris dessus pour voir le nom de la station.

Cliquer dessus pour voir les observations et prévisions météorologiques.

Pour changer de carte: cliquez sur les boutons verts avec une croix noire pour zoomer, sur le bouton vert avec un tiret pour effectuer un zoom arrière, ou sur les flèches vertes pour les cartes adjacentes.


METAR-TAF: